createdAt,value
2024-01-16T00:01:44.878Z,2.87
2024-01-16T00:04:12.069Z,2.50
2024-01-16T00:06:44.406Z,3.67
2024-01-16T00:09:12.491Z,5.77
2024-01-16T00:11:43.109Z,5.57
2024-01-16T00:14:09.899Z,6.50
2024-01-16T00:16:46.596Z,4.80
2024-01-16T00:19:13.540Z,4.73
2024-01-16T00:21:47.561Z,5.87
2024-01-16T00:24:15.012Z,2.80
2024-01-16T00:26:41.507Z,7.20
2024-01-16T00:29:09.638Z,5.20
2024-01-16T00:31:36.060Z,3.33
2024-01-16T00:34:03.828Z,1.83
2024-01-16T00:36:31.014Z,2.13
2024-01-16T00:38:57.686Z,3.60
2024-01-16T00:41:24.049Z,11.80
2024-01-16T00:43:51.019Z,2.40
2024-01-16T00:46:17.414Z,3.83
2024-01-16T00:48:44.240Z,6.20
2024-01-16T00:51:10.730Z,5.70
2024-01-16T00:53:44.217Z,2.50
2024-01-16T00:56:13.036Z,5.47
2024-01-16T00:58:39.878Z,3.53
2024-01-16T01:01:06.695Z,2.43
2024-01-16T01:03:33.479Z,3.67
2024-01-16T01:06:01.822Z,1.87
2024-01-16T01:08:28.863Z,2.37
2024-01-16T01:10:55.380Z,2.97
2024-01-16T01:13:22.957Z,1.83
2024-01-16T01:15:49.423Z,2.73
2024-01-16T01:18:16.261Z,4.27
2024-01-16T01:20:42.958Z,5.20
2024-01-16T01:23:10.627Z,5.17
2024-01-16T01:25:37.251Z,5.10
2024-01-16T01:28:04.430Z,2.53
2024-01-16T01:30:30.961Z,3.03
2024-01-16T01:32:57.762Z,3.20
2024-01-16T01:35:24.419Z,3.30
2024-01-16T01:37:51.806Z,4.30
2024-01-16T01:40:18.554Z,10.10
2024-01-16T01:42:45.210Z,8.03
2024-01-16T01:45:12.131Z,5.00
2024-01-16T01:47:40.447Z,6.23
2024-01-16T01:50:08.562Z,3.63
2024-01-16T01:52:37.885Z,5.40
2024-01-16T01:55:06.414Z,1.90
2024-01-16T01:57:34.724Z,2.73
2024-01-16T02:00:01.995Z,3.33
2024-01-16T02:02:42.026Z,3.30
2024-01-16T02:05:08.700Z,3.23
2024-01-16T02:07:36.222Z,5.00
2024-01-16T02:10:03.123Z,3.87
2024-01-16T02:12:30.488Z,3.17
2024-01-16T02:14:56.805Z,8.43
2024-01-16T02:17:23.547Z,15.23
2024-01-16T02:19:49.929Z,23.07
2024-01-16T02:22:21.854Z,13.27
2024-01-16T02:24:49.305Z,7.50
2024-01-16T02:27:16.056Z,7.77
2024-01-16T02:29:45.859Z,7.83
2024-01-16T02:32:13.421Z,7.83
2024-01-16T02:34:39.824Z,5.60
2024-01-16T02:37:06.496Z,6.83
2024-01-16T02:39:33.215Z,6.00
2024-01-16T02:41:59.943Z,5.37
2024-01-16T02:44:26.361Z,4.50
2024-01-16T02:46:53.192Z,6.50
2024-01-16T02:49:19.644Z,6.53
2024-01-16T02:51:46.366Z,6.43
2024-01-16T02:54:12.815Z,6.20
2024-01-16T02:56:39.847Z,7.77
2024-01-16T02:59:06.318Z,5.67
2024-01-16T03:01:33.555Z,7.87
2024-01-16T03:03:59.996Z,4.73
2024-01-16T03:06:26.925Z,7.80
2024-01-16T03:08:54.051Z,10.43
2024-01-16T03:11:20.908Z,9.50
2024-01-16T03:13:49.117Z,6.00
2024-01-16T03:16:16.304Z,4.00
2024-01-16T03:18:42.787Z,9.93
2024-01-16T03:21:11.101Z,10.20
2024-01-16T03:23:37.602Z,5.97
2024-01-16T03:26:04.649Z,8.90
2024-01-16T03:28:31.195Z,4.07
2024-01-16T03:30:57.974Z,3.57
2024-01-16T03:33:24.725Z,6.47
2024-01-16T03:35:51.533Z,2.70
2024-01-16T03:38:17.956Z,6.83
2024-01-16T03:40:44.819Z,2.97
2024-01-16T03:43:11.209Z,4.67
2024-01-16T03:45:37.960Z,8.30
2024-01-16T03:48:05.609Z,7.93
2024-01-16T03:50:34.177Z,6.10
2024-01-16T03:53:00.608Z,3.47
2024-01-16T03:55:27.303Z,24.83
2024-01-16T03:57:53.752Z,12.60
2024-01-16T04:00:20.470Z,3.60
2024-01-16T04:02:46.906Z,2.77
2024-01-16T04:05:14.050Z,6.47
2024-01-16T04:07:40.591Z,12.80
2024-01-16T04:10:07.877Z,13.23
2024-01-16T04:12:34.263Z,5.13
2024-01-16T04:15:00.861Z,5.43
2024-01-16T04:17:27.477Z,27.63
2024-01-16T04:19:54.137Z,42.47
2024-01-16T04:22:20.439Z,21.67
2024-01-16T04:24:48.110Z,10.67
2024-01-16T04:27:14.462Z,8.73
2024-01-16T04:29:41.419Z,7.80
2024-01-16T04:32:08.541Z,8.23
2024-01-16T04:34:35.298Z,8.57
2024-01-16T04:37:01.647Z,7.87
2024-01-16T04:39:28.428Z,6.63
2024-01-16T04:41:54.983Z,8.20
2024-01-16T04:44:21.743Z,5.20
2024-01-16T04:46:48.138Z,4.73
2024-01-16T04:49:14.994Z,6.00
2024-01-16T04:51:41.497Z,11.97
2024-01-16T04:54:08.277Z,9.33
2024-01-16T04:56:34.804Z,8.40
2024-01-16T04:59:01.906Z,14.20
2024-01-16T05:01:28.428Z,5.73
2024-01-16T05:03:55.382Z,6.03
2024-01-16T05:06:21.996Z,9.73
2024-01-16T05:08:49.198Z,10.77
2024-01-16T05:11:15.971Z,11.37
2024-01-16T05:13:42.975Z,11.90
2024-01-16T05:16:09.700Z,10.63
2024-01-16T05:18:36.686Z,13.60
2024-01-16T05:21:05.138Z,10.10
2024-01-16T05:23:32.185Z,13.60
2024-01-16T05:25:59.234Z,12.53
2024-01-16T05:28:26.089Z,11.07
2024-01-16T05:30:52.856Z,11.17
2024-01-16T05:33:19.957Z,12.00
2024-01-16T05:35:46.506Z,14.77
2024-01-16T05:38:13.284Z,11.83
2024-01-16T05:40:40.430Z,13.40
2024-01-16T05:43:07.221Z,16.00
2024-01-16T05:45:33.608Z,12.17
2024-01-16T05:48:00.715Z,20.27
2024-01-16T05:50:27.275Z,15.47
2024-01-16T05:52:54.675Z,14.50
2024-01-16T05:55:21.989Z,11.43
2024-01-16T05:57:49.041Z,9.13
2024-01-16T06:00:18.404Z,10.87
2024-01-16T06:02:45.343Z,9.00
2024-01-16T06:05:12.211Z,7.60
2024-01-16T06:07:40.320Z,8.20
2024-01-16T06:10:07.503Z,6.57
2024-01-16T06:12:34.580Z,6.13
2024-01-16T06:15:01.095Z,7.13
2024-01-16T06:17:28.072Z,11.90
2024-01-16T06:19:54.829Z,17.57
2024-01-16T06:22:21.594Z,10.67
2024-01-16T06:24:48.037Z,18.20
2024-01-16T06:27:19.436Z,17.23
2024-01-16T06:29:46.933Z,26.70
2024-01-16T06:32:13.675Z,15.37
2024-01-16T06:34:40.437Z,13.77
2024-01-16T06:37:07.497Z,17.03
2024-01-16T06:39:34.933Z,13.53
2024-01-16T06:42:02.339Z,14.70
2024-01-16T06:44:28.770Z,15.70
2024-01-16T06:46:55.894Z,13.53
2024-01-16T06:49:22.434Z,9.83
2024-01-16T06:51:49.337Z,5.77
2024-01-16T06:54:15.852Z,9.47
2024-01-16T06:56:42.789Z,9.17
2024-01-16T06:59:12.023Z,7.80
2024-01-16T07:01:39.089Z,8.33
2024-01-16T07:04:05.612Z,7.73
2024-01-16T07:06:32.583Z,7.80
2024-01-16T07:08:59.051Z,10.13
2024-01-16T07:11:25.932Z,12.03
2024-01-16T07:13:52.365Z,10.80
2024-01-16T07:16:19.074Z,12.73
2024-01-16T07:18:48.258Z,46.60
2024-01-16T07:21:22.005Z,33.53
2024-01-16T07:23:48.729Z,37.33
2024-01-16T07:26:16.938Z,30.90
2024-01-16T07:28:44.198Z,26.17
2024-01-16T07:31:12.052Z,21.90
2024-01-16T07:33:38.458Z,25.03
2024-01-16T07:36:06.705Z,27.77
2024-01-16T07:38:33.182Z,32.63
2024-01-16T07:41:00.195Z,32.73
2024-01-16T07:43:26.879Z,30.90
2024-01-16T07:45:53.771Z,33.40
2024-01-16T07:48:20.378Z,31.57
2024-01-16T07:50:47.243Z,27.57
2024-01-16T07:53:15.542Z,26.13
2024-01-16T07:55:43.285Z,27.63
2024-01-16T07:58:13.435Z,19.53
2024-01-16T08:00:41.296Z,12.97
2024-01-16T08:03:11.805Z,9.93
2024-01-16T08:05:39.999Z,8.73
2024-01-16T08:08:10.213Z,8.53
2024-01-16T08:10:37.435Z,10.03
2024-01-16T08:13:03.857Z,9.40
2024-01-16T08:15:30.654Z,12.37
2024-01-16T08:17:57.261Z,10.13
2024-01-16T08:20:24.504Z,9.93
2024-01-16T08:22:51.148Z,13.53
2024-01-16T08:25:18.124Z,10.27
2024-01-16T08:27:44.762Z,11.43
2024-01-16T08:30:12.845Z,11.07
2024-01-16T08:32:39.452Z,11.20
2024-01-16T08:35:07.065Z,11.83
2024-01-16T08:37:34.602Z,10.80
2024-01-16T08:40:03.692Z,12.47
2024-01-16T08:42:31.207Z,10.43
2024-01-16T08:44:57.973Z,9.90
2024-01-16T08:47:24.626Z,9.87
2024-01-16T08:49:51.427Z,12.17
2024-01-16T08:52:17.858Z,10.07
2024-01-16T08:54:44.838Z,7.07
2024-01-16T08:57:12.041Z,10.53
2024-01-16T08:59:41.290Z,7.20
2024-01-16T09:02:08.246Z,5.80
2024-01-16T09:04:35.255Z,11.10
2024-01-16T09:07:04.988Z,20.97
2024-01-16T09:09:31.927Z,14.97
2024-01-16T09:11:58.605Z,10.43
2024-01-16T09:14:25.425Z,11.53
2024-01-16T09:16:53.605Z,16.83
2024-01-16T09:19:20.535Z,35.07
2024-01-16T09:21:48.406Z,27.97
2024-01-16T09:24:15.118Z,39.33
2024-01-16T09:26:41.523Z,51.47
2024-01-16T09:29:10.150Z,59.83
2024-01-16T09:31:36.960Z,12.80
2024-01-16T09:34:08.262Z,40.40
2024-01-16T09:36:37.216Z,26.73
2024-01-16T09:39:08.415Z,38.00
2024-01-16T09:41:35.559Z,32.20
2024-01-16T09:44:05.471Z,15.00
2024-01-16T09:46:40.357Z,22.20
2024-01-16T09:49:07.627Z,31.23
2024-01-16T09:51:34.178Z,53.33
2024-01-16T09:54:02.439Z,63.07
2024-01-16T09:56:30.984Z,33.47
2024-01-16T09:59:06.438Z,21.33
2024-01-16T10:01:34.022Z,15.43
2024-01-16T10:04:00.925Z,19.07
2024-01-16T10:06:28.458Z,16.63
2024-01-16T10:08:55.420Z,17.50
2024-01-16T10:11:21.928Z,20.20
2024-01-16T10:13:51.631Z,19.60
2024-01-16T10:16:18.053Z,19.03
2024-01-16T10:18:45.018Z,7.07
2024-01-16T10:21:23.525Z,9.77
2024-01-16T10:23:50.895Z,17.57
2024-01-16T10:26:19.009Z,9.67
2024-01-16T10:28:45.988Z,9.97
2024-01-16T10:31:16.990Z,11.13
2024-01-16T10:33:44.067Z,9.40
2024-01-16T10:36:20.159Z,7.90
2024-01-16T10:38:47.325Z,7.27
2024-01-16T10:41:17.843Z,7.03
2024-01-16T10:43:45.665Z,7.57
2024-01-16T10:46:14.565Z,8.67
2024-01-16T10:48:43.743Z,7.13
2024-01-16T10:51:14.249Z,5.10
2024-01-16T10:53:44.530Z,6.30
2024-01-16T10:56:12.842Z,5.27
2024-01-16T10:58:42.650Z,5.93
2024-01-16T11:01:16.090Z,8.27
2024-01-16T11:03:45.952Z,8.50
2024-01-16T11:06:14.738Z,6.67
2024-01-16T11:08:42.486Z,3.13
2024-01-16T11:11:10.025Z,9.40
2024-01-16T11:13:39.208Z,6.40
2024-01-16T11:16:07.465Z,6.17
2024-01-16T11:18:38.059Z,9.53
2024-01-16T11:21:14.325Z,6.33
2024-01-16T11:23:45.659Z,4.43
2024-01-16T11:26:33.098Z,3.03
2024-01-16T11:29:01.769Z,3.47
2024-01-16T11:31:36.050Z,3.13
2024-01-16T11:34:04.368Z,7.87
2024-01-16T11:36:54.702Z,4.00
2024-01-16T11:39:30.145Z,6.07
2024-01-16T11:41:58.845Z,6.07
2024-01-16T11:44:51.280Z,6.07
2024-01-16T11:47:23.740Z,5.40
2024-01-16T11:50:07.972Z,8.40
2024-01-16T11:52:45.325Z,5.53
2024-01-16T11:55:33.277Z,6.00
2024-01-16T11:58:12.058Z,8.77
2024-01-16T12:00:42.525Z,6.87
2024-01-16T12:03:11.681Z,9.70
2024-01-16T12:05:38.922Z,5.37
2024-01-16T12:08:06.683Z,7.70
2024-01-16T12:10:34.238Z,6.83
2024-01-16T12:13:05.218Z,4.80
2024-01-16T12:15:33.487Z,8.17
2024-01-16T12:18:01.957Z,10.03
2024-01-16T12:20:35.262Z,6.53
2024-01-16T12:23:07.297Z,6.10
2024-01-16T12:26:00.820Z,6.30
2024-01-16T12:28:31.971Z,5.37
2024-01-16T12:31:02.312Z,10.27
2024-01-16T12:33:30.911Z,7.77
2024-01-16T12:36:06.826Z,5.47
2024-01-16T12:38:35.785Z,7.17
2024-01-16T12:41:09.053Z,6.30
2024-01-16T12:43:37.483Z,7.77
2024-01-16T12:46:04.375Z,5.80
2024-01-16T12:48:31.410Z,4.77
2024-01-16T12:51:02.969Z,6.33
2024-01-16T12:53:29.871Z,7.73
2024-01-16T12:56:01.342Z,6.67
2024-01-16T12:58:36.607Z,7.97
2024-01-16T13:01:33.844Z,10.53
2024-01-16T13:04:05.674Z,9.53
2024-01-16T13:06:32.886Z,12.07
2024-01-16T13:09:11.849Z,11.07
2024-01-16T13:11:55.394Z,9.37
2024-01-16T13:14:23.159Z,13.30
2024-01-16T13:16:51.624Z,8.60
2024-01-16T13:19:22.765Z,9.23
2024-01-16T13:21:50.543Z,9.03
2024-01-16T13:24:23.741Z,13.77
2024-01-16T13:26:51.154Z,9.40
2024-01-16T13:29:17.957Z,10.23
2024-01-16T13:31:45.212Z,12.93
2024-01-16T13:34:12.535Z,12.70
2024-01-16T13:36:53.860Z,12.87
2024-01-16T13:39:26.700Z,14.33
2024-01-16T13:41:54.206Z,13.37
2024-01-16T13:44:20.883Z,14.57
2024-01-16T13:46:57.487Z,12.90
2024-01-16T13:49:33.849Z,12.83
2024-01-16T13:52:00.841Z,15.77
2024-01-16T13:54:27.358Z,13.37
2024-01-16T13:57:03.160Z,14.33
2024-01-16T13:59:34.267Z,11.37
2024-01-16T14:02:03.491Z,11.97
2024-01-16T14:04:30.119Z,13.37
2024-01-16T14:07:10.512Z,17.77
2024-01-16T14:09:41.744Z,14.27
2024-01-16T14:12:08.971Z,9.77
2024-01-16T14:14:35.586Z,9.27
2024-01-16T14:17:05.621Z,11.37
2024-01-16T14:19:32.633Z,16.93
2024-01-16T14:21:59.883Z,11.80
2024-01-16T14:24:26.697Z,11.13
2024-01-16T14:26:53.769Z,11.30
2024-01-16T14:29:20.569Z,14.70
2024-01-16T14:31:49.095Z,14.43
2024-01-16T14:34:15.905Z,19.40
2024-01-16T14:36:43.101Z,18.27
2024-01-16T14:39:14.086Z,17.83
2024-01-16T14:41:41.764Z,15.90
2024-01-16T14:44:10.272Z,15.93
2024-01-16T14:46:37.895Z,19.73
2024-01-16T14:49:04.923Z,16.10
2024-01-16T14:51:33.054Z,16.13
2024-01-16T14:54:02.266Z,14.20
2024-01-16T14:56:30.845Z,18.03
2024-01-16T14:58:58.497Z,14.23
2024-01-16T15:01:26.019Z,14.10
2024-01-16T15:03:53.872Z,15.67
2024-01-16T15:06:22.950Z,16.07
2024-01-16T15:08:50.186Z,21.17
2024-01-16T15:11:18.258Z,19.23
2024-01-16T15:13:45.904Z,22.13
2024-01-16T15:16:12.855Z,18.23
2024-01-16T15:18:39.430Z,17.97
2024-01-16T15:21:06.534Z,15.87
2024-01-16T15:23:33.644Z,16.87
2024-01-16T15:26:03.669Z,16.17
2024-01-16T15:28:31.236Z,24.77
2024-01-16T15:30:58.170Z,30.00
2024-01-16T15:33:24.831Z,31.93
2024-01-16T15:35:51.718Z,35.93
2024-01-16T15:38:18.889Z,30.13
2024-01-16T15:40:46.446Z,27.43
2024-01-16T15:43:12.885Z,22.20
2024-01-16T15:45:39.691Z,20.90
2024-01-16T15:48:06.627Z,26.73
2024-01-16T15:50:33.831Z,30.37
2024-01-16T15:53:00.661Z,28.60
2024-01-16T15:55:28.357Z,22.33
2024-01-16T15:57:56.270Z,20.23
2024-01-16T16:00:23.956Z,17.57
2024-01-16T16:02:51.926Z,17.87
2024-01-16T16:05:19.135Z,25.17
2024-01-16T16:07:48.037Z,26.93
2024-01-16T16:10:15.221Z,29.97
2024-01-16T16:12:41.748Z,17.77
2024-01-16T16:15:08.729Z,26.67
2024-01-16T16:17:35.942Z,27.40
2024-01-16T16:20:04.091Z,25.83
2024-01-16T16:22:31.025Z,29.67
2024-01-16T16:24:59.720Z,33.10
2024-01-16T16:27:29.270Z,30.63
2024-01-16T16:29:58.086Z,28.07
2024-01-16T16:32:25.766Z,23.87
2024-01-16T16:34:53.829Z,23.63
2024-01-16T16:37:21.419Z,28.77
2024-01-16T16:39:48.894Z,55.93
2024-01-16T16:42:19.788Z,35.03
2024-01-16T16:44:47.619Z,32.37
2024-01-16T16:47:16.029Z,28.50
2024-01-16T16:49:43.447Z,24.50
2024-01-16T16:52:10.357Z,18.53
2024-01-16T16:54:37.355Z,23.03
2024-01-16T16:57:04.516Z,23.13
2024-01-16T16:59:31.784Z,25.70
2024-01-16T17:01:59.589Z,22.73
2024-01-16T17:04:27.009Z,18.17
2024-01-16T17:06:55.972Z,28.23
2024-01-16T17:09:23.525Z,30.80
2024-01-16T17:11:50.640Z,30.17
2024-01-16T17:14:17.929Z,39.87
2024-01-16T17:16:44.769Z,38.83
2024-01-16T17:19:12.882Z,34.07
2024-01-16T17:21:40.573Z,41.40
2024-01-16T17:24:08.046Z,47.53
2024-01-16T17:26:35.730Z,36.43
2024-01-16T17:29:02.893Z,37.70
2024-01-16T17:31:30.142Z,41.60
2024-01-16T17:33:57.756Z,51.67
2024-01-16T17:36:24.820Z,46.80
2024-01-16T17:38:56.421Z,31.57
2024-01-16T17:41:26.414Z,37.40
2024-01-16T17:43:54.337Z,40.70
2024-01-16T17:46:21.269Z,31.87
2024-01-16T17:48:48.870Z,41.87
2024-01-16T17:51:15.753Z,27.87
2024-01-16T17:53:45.280Z,22.60
2024-01-16T17:56:16.207Z,23.47
2024-01-16T17:58:43.904Z,25.87
2024-01-16T18:01:11.930Z,22.20
2024-01-16T18:03:44.968Z,25.47
2024-01-16T18:06:16.605Z,19.90
2024-01-16T18:08:43.496Z,19.67
2024-01-16T18:11:13.241Z,18.60
2024-01-16T18:13:42.489Z,21.53
2024-01-16T18:16:10.003Z,22.03
2024-01-16T18:18:41.381Z,21.23
2024-01-16T18:21:12.618Z,25.70
2024-01-16T18:23:40.956Z,24.53
2024-01-16T18:26:08.448Z,18.67
2024-01-16T18:28:35.234Z,18.70
2024-01-16T18:31:02.952Z,20.30
2024-01-16T18:33:29.957Z,26.30
2024-01-16T18:36:00.582Z,26.47
2024-01-16T18:38:28.293Z,24.90
2024-01-16T18:40:56.524Z,22.60
2024-01-16T18:43:23.193Z,21.10
2024-01-16T18:45:52.230Z,20.10
2024-01-16T18:48:19.218Z,22.83
2024-01-16T18:50:49.846Z,24.50
2024-01-16T18:53:17.179Z,24.00
2024-01-16T18:55:44.165Z,20.43
2024-01-16T18:58:13.672Z,24.40
2024-01-16T19:00:42.869Z,25.07
2024-01-16T19:03:09.969Z,24.07
2024-01-16T19:05:39.332Z,21.97
2024-01-16T19:08:07.768Z,23.63
2024-01-16T19:10:38.882Z,21.93
2024-01-16T19:13:06.202Z,21.30
2024-01-16T19:15:33.617Z,24.10
2024-01-16T19:18:00.366Z,23.73
2024-01-16T19:20:28.766Z,27.70
2024-01-16T19:22:56.589Z,31.60
2024-01-16T19:25:25.850Z,26.10
2024-01-16T19:27:52.788Z,29.37
2024-01-16T19:30:21.362Z,25.97
2024-01-16T19:32:49.519Z,30.97
2024-01-16T19:35:17.845Z,27.33
2024-01-16T19:37:45.043Z,24.93
2024-01-16T19:40:12.686Z,22.60
2024-01-16T19:42:39.711Z,17.83
2024-01-16T19:45:10.220Z,14.60
2024-01-16T19:47:40.045Z,20.50
2024-01-16T19:50:19.278Z,19.23
2024-01-16T19:52:50.867Z,15.40
2024-01-16T19:55:19.851Z,16.53
2024-01-16T19:57:47.524Z,15.50
2024-01-16T20:00:15.103Z,23.97
2024-01-16T20:02:43.283Z,18.43
2024-01-16T20:05:15.594Z,19.90
2024-01-16T20:07:43.464Z,17.20
2024-01-16T20:10:14.218Z,17.33
2024-01-16T20:12:45.112Z,11.13
2024-01-16T20:15:15.948Z,13.27
2024-01-16T20:17:43.396Z,12.13
2024-01-16T20:20:11.038Z,16.70
2024-01-16T20:22:38.030Z,14.03
2024-01-16T20:25:05.400Z,16.57
2024-01-16T20:27:32.333Z,12.60
2024-01-16T20:29:59.222Z,15.07
2024-01-16T20:32:25.935Z,18.37
2024-01-16T20:34:53.874Z,15.03
2024-01-16T20:37:20.862Z,13.53
2024-01-16T20:39:48.242Z,12.43
2024-01-16T20:42:15.314Z,13.70
2024-01-16T20:44:42.319Z,14.90
2024-01-16T20:47:11.206Z,15.30
2024-01-16T20:49:38.419Z,16.50
2024-01-16T20:52:05.405Z,15.47
2024-01-16T20:54:32.446Z,13.23
2024-01-16T20:56:59.324Z,13.73
2024-01-16T20:59:27.457Z,17.23
2024-01-16T21:01:54.733Z,16.53
2024-01-16T21:04:21.543Z,13.87
2024-01-16T21:06:49.134Z,14.87
2024-01-16T21:09:16.167Z,13.10
2024-01-16T21:11:43.922Z,14.17
2024-01-16T21:14:11.321Z,11.40
2024-01-16T21:16:37.851Z,13.83
2024-01-16T21:19:08.398Z,11.67
2024-01-16T21:21:35.736Z,14.07
2024-01-16T21:24:04.739Z,14.00
2024-01-16T21:26:31.496Z,10.07
2024-01-16T21:28:58.359Z,12.13
2024-01-16T21:31:25.474Z,12.63
2024-01-16T21:33:53.568Z,13.90
2024-01-16T21:36:20.543Z,14.47
2024-01-16T21:38:47.961Z,11.10
2024-01-16T21:41:14.583Z,10.63
2024-01-16T21:43:41.505Z,12.97
2024-01-16T21:46:07.948Z,12.70
2024-01-16T21:48:35.677Z,12.17
2024-01-16T21:51:02.617Z,14.30
2024-01-16T21:53:29.513Z,19.07
2024-01-16T21:55:56.173Z,13.30
2024-01-16T21:58:22.863Z,12.67
2024-01-16T22:00:49.894Z,15.00
2024-01-16T22:03:16.735Z,13.10
2024-01-16T22:05:43.508Z,10.17
2024-01-16T22:08:10.303Z,14.97
2024-01-16T22:10:42.184Z,15.23
2024-01-16T22:13:09.730Z,15.63
2024-01-16T22:15:36.185Z,14.57
2024-01-16T22:18:15.698Z,17.73
2024-01-16T22:20:42.299Z,14.97
2024-01-16T22:23:09.719Z,14.37
2024-01-16T22:25:36.729Z,16.57
2024-01-16T22:28:04.011Z,13.87
2024-01-16T22:30:30.613Z,14.37
2024-01-16T22:33:00.608Z,14.03
2024-01-16T22:35:27.450Z,14.17
2024-01-16T22:37:54.551Z,13.50
2024-01-16T22:40:21.149Z,17.73
2024-01-16T22:42:47.956Z,15.50
2024-01-16T22:45:16.634Z,16.33
2024-01-16T22:47:44.026Z,11.80
2024-01-16T22:50:11.814Z,12.33
2024-01-16T22:52:39.778Z,18.83
2024-01-16T22:55:06.389Z,12.53
2024-01-16T22:57:33.324Z,17.13
2024-01-16T23:00:00.665Z,15.87
2024-01-16T23:02:29.312Z,17.03
2024-01-16T23:04:56.066Z,14.07
2024-01-16T23:07:22.543Z,15.07
2024-01-16T23:09:49.341Z,15.80
2024-01-16T23:12:16.209Z,14.03
2024-01-16T23:14:43.680Z,13.43
2024-01-16T23:17:10.134Z,15.00
2024-01-16T23:19:37.073Z,15.97
2024-01-16T23:22:04.516Z,12.67
2024-01-16T23:24:31.460Z,13.70
2024-01-16T23:26:58.050Z,14.70
2024-01-16T23:29:24.814Z,16.80
2024-01-16T23:31:51.343Z,17.17
2024-01-16T23:34:18.609Z,16.00
2024-01-16T23:36:45.109Z,21.20
2024-01-16T23:39:12.007Z,24.67
2024-01-16T23:41:38.668Z,21.57
2024-01-16T23:44:05.391Z,16.43
2024-01-16T23:46:35.307Z,13.97
2024-01-16T23:49:02.394Z,16.83
2024-01-16T23:51:31.596Z,18.07
2024-01-16T23:53:58.535Z,13.73
2024-01-16T23:56:25.183Z,14.97
2024-01-16T23:58:51.985Z,19.87
